Wetterdaten: Woche 29.09.14 - 05.10.14 (KW40)
Datum Zeit Temperatur Luftfeuchte Luftdruck Niederschlag Windrichtung Sonnenschein Solar Wind
29.09.2014 00:00 10,8 C 93 % 1024,8 hPa 0,0 l/m N 0,00 h 0 W/m 0,1 km/h (0 Bft)
29.09.2014 01:00 10,1 C 94 % 1024,8 hPa 0,0 l/m N 0,00 h 0 W/m 0,0 km/h (0 Bft)
29.09.2014 02:00 9,7 C 94 % 1024,5 hPa 0,0 l/m N 0,00 h 0 W/m 0,0 km/h (0 Bft)
29.09.2014 03:00 9,3 C 95 % 1024,4 hPa 0,0 l/m N 0,00 h 0 W/m 0,3 km/h (0 Bft)
29.09.2014 04:00 9,0 C 96 % 1024,3 hPa 0,0 l/m N 0,00 h 0 W/m 0,3 km/h (0 Bft)
29.09.2014 05:00 9,1 C 97 % 1024,4 hPa 0,0 l/m N 0,00 h 0 W/m 0,0 km/h (0 Bft)
29.09.2014 06:00 9,3 C 97 % 1024,3 hPa 0,0 l/m N 0,00 h 0 W/m 0,3 km/h (0 Bft)
29.09.2014 07:00 9,4 C 97 % 1024,6 hPa 0,0 l/m N 0,00 h 10 W/m 0,3 km/h (0 Bft)
29.09.2014 08:00 9,9 C 98 % 1024,6 hPa 0,2 l/m N 0,00 h 36 W/m 0,4 km/h (0 Bft)
29.09.2014 09:00 11,2 C 99 % 1024,8 hPa 0,0 l/m O 0,00 h 77 W/m 2,8 km/h (1 Bft)
29.09.2014 10:00 12,8 C 99 % 1025,0 hPa 0,0 l/m O-SO 0,00 h 127 W/m 3,7 km/h (1 Bft)
29.09.2014 11:00 13,8 C 99 % 1024,8 hPa 0,0 l/m O-SO 0,00 h 144 W/m 2,0 km/h (1 Bft)
29.09.2014 12:00 15,6 C 97 % 1024,3 hPa 0,0 l/m O-SO 0,75 h 506 W/m 3,5 km/h (1 Bft)
29.09.2014 13:00 18,8 C 87 % 1023,5 hPa 0,0 l/m S-SO 1,00 h 644 W/m 7,4 km/h (2 Bft)
29.09.2014 14:00 20,3 C 80 % 1023,0 hPa 0,0 l/m S 0,92 h 507 W/m 7,9 km/h (2 Bft)
29.09.2014 15:00 21,1 C 75 % 1022,5 hPa 0,0 l/m S 0,83 h 405 W/m 5,7 km/h (1 Bft)
29.09.2014 16:00 21,3 C 73 % 1022,4 hPa 0,0 l/m S-SW 0,83 h 357 W/m 5,3 km/h (1 Bft)
29.09.2014 17:00 21,2 C 73 % 1022,5 hPa 0,0 l/m S-SW 0,75 h 216 W/m 5,6 km/h (1 Bft)
29.09.2014 18:00 18,9 C 85 % 1022,6 hPa 0,0 l/m N 0,33 h 42 W/m 0,4 km/h (0 Bft)
29.09.2014 19:00 16,4 C 92 % 1023,0 hPa 0,0 l/m N 0,00 h 5 W/m 0,3 km/h (0 Bft)
29.09.2014 20:00 15,6 C 93 % 1023,3 hPa 0,0 l/m N 0,00 h 0 W/m 0,0 km/h (0 Bft)
29.09.2014 21:00 14,9 C 93 % 1023,6 hPa 0,0 l/m N 0,00 h 0 W/m 0,0 km/h (0 Bft)
29.09.2014 22:00 14,1 C 93 % 1023,8 hPa 0,0 l/m N 0,00 h 0 W/m 0,0 km/h (0 Bft)
29.09.2014 23:00 13,8 C 94 % 1023,9 hPa 0,0 l/m N 0,00 h 0 W/m 0,0 km/h (0 Bft)
30.09.2014 00:00 13,7 C 95 % 1023,9 hPa 0,0 l/m N 0,00 h 0 W/m 0,0 km/h (0 Bft)
30.09.2014 01:00 13,5 C 95 % 1024,0 hPa 0,0 l/m N 0,00 h 0 W/m 0,0 km/h (0 Bft)
30.09.2014 02:00 13,2 C 96 % 1023,8 hPa 0,0 l/m N 0,00 h 0 W/m 0,0 km/h (0 Bft)
30.09.2014 03:00 13,1 C 96 % 1023,6 hPa 0,0 l/m N 0,00 h 0 W/m 0,0 km/h (0 Bft)
30.09.2014 04:00 12,8 C 96 % 1023,7 hPa 0,0 l/m N 0,00 h 0 W/m 0,0 km/h (0 Bft)
30.09.2014 05:00 12,6 C 97 % 1023,8 hPa 0,0 l/m N 0,00 h 0 W/m 0,0 km/h (0 Bft)
30.09.2014 06:00 12,7 C 97 % 1023,8 hPa 0,0 l/m N 0,00 h 0 W/m 0,0 km/h (0 Bft)
30.09.2014 07:00 12,4 C 97 % 1023,8 hPa 0,0 l/m N 0,00 h 12 W/m 0,0 km/h (0 Bft)
30.09.2014 08:00 12,5 C 97 % 1024,0 hPa 0,0 l/m N 0,00 h 22 W/m 0,0 km/h (0 Bft)
30.09.2014 09:00 13,1 C 98 % 1024,2 hPa 0,0 l/m N 0,00 h 82 W/m 0,0 km/h (0 Bft)
30.09.2014 10:00 14,4 C 99 % 1024,2 hPa 0,0 l/m S-SW 0,00 h 148 W/m 3,7 km/h (1 Bft)
30.09.2014 11:00 16,6 C 92 % 1024,1 hPa 0,0 l/m S-SW 0,00 h 214 W/m 4,5 km/h (1 Bft)
30.09.2014 12:00 18,4 C 85 % 1024,0 hPa 0,0 l/m S 0,17 h 237 W/m 4,8 km/h (1 Bft)
30.09.2014 13:00 18,6 C 86 % 1023,9 hPa 0,0 l/m S-SW 0,00 h 149 W/m 8,2 km/h (2 Bft)
30.09.2014 14:00 18,1 C 89 % 1023,8 hPa 0,0 l/m S-SW 0,00 h 163 W/m 10,3 km/h (2 Bft)
30.09.2014 15:00 18,0 C 89 % 1023,5 hPa 0,0 l/m SW 0,00 h 146 W/m 11,2 km/h (2 Bft)
30.09.2014 16:00 17,7 C 90 % 1023,5 hPa 0,0 l/m S-SW 0,00 h 75 W/m 9,3 km/h (2 Bft)
30.09.2014 17:00 16,9 C 93 % 1023,5 hPa 0,0 l/m S-SW 0,00 h 34 W/m 10,5 km/h (2 Bft)
30.09.2014 18:00 16,0 C 95 % 1023,7 hPa 0,4 l/m S-SW 0,00 h 8 W/m 7,9 km/h (2 Bft)
30.09.2014 19:00 15,4 C 97 % 1024,0 hPa 1,0 l/m N 0,00 h 0 W/m 2,4 km/h (1 Bft)
30.09.2014 20:00 15,0 C 98 % 1024,3 hPa 0,0 l/m N 0,00 h 0 W/m 0,0 km/h (0 Bft)
30.09.2014 21:00 14,9 C 98 % 1024,4 hPa 0,0 l/m N 0,00 h 0 W/m 0,1 km/h (0 Bft)
30.09.2014 22:00 14,7 C 98 % 1024,3 hPa 0,4 l/m N 0,00 h 0 W/m 0,1 km/h (0 Bft)
30.09.2014 23:00 14,7 C 98 % 1024,2 hPa 0,2 l/m N 0,00 h 0 W/m 0,5 km/h (0 Bft)
01.10.2014 00:00 14,5 C 98 % 1024,0 hPa 0,0 l/m S-SW 0,00 h 0 W/m 1,6 km/h (1 Bft)
01.10.2014 01:00 14,5 C 98 % 1023,9 hPa 0,0 l/m N 0,00 h 0 W/m 0,9 km/h (0 Bft)
01.10.2014 02:00 14,4 C 98 % 1023,8 hPa 0,0 l/m N 0,00 h 0 W/m 0,0 km/h (0 Bft)
01.10.2014 03:00 14,4 C 98 % 1023,9 hPa 0,0 l/m N 0,00 h 0 W/m 0,0 km/h (0 Bft)
01.10.2014 04:00 14,5 C 99 % 1023,8 hPa 0,0 l/m N 0,00 h 0 W/m 0,0 km/h (0 Bft)
01.10.2014 05:00 14,6 C 99 % 1023,7 hPa 0,0 l/m N 0,00 h 0 W/m 1,1 km/h (0 Bft)
01.10.2014 06:00 14,6 C 99 % 1023,6 hPa 0,0 l/m S-SW 0,00 h 0 W/m 5,3 km/h (1 Bft)
01.10.2014 07:00 14,2 C 99 % 1023,6 hPa 0,0 l/m N 0,00 h 10 W/m 5,8 km/h (1 Bft)
01.10.2014 08:00 14,0 C 99 % 1023,9 hPa 0,0 l/m N 0,08 h 73 W/m 2,7 km/h (1 Bft)
01.10.2014 09:00 14,3 C 98 % 1024,2 hPa 0,0 l/m N 0,00 h 90 W/m 7,1 km/h (2 Bft)
01.10.2014 10:00 15,2 C 95 % 1024,3 hPa 0,0 l/m N-NO 0,42 h 278 W/m 7,6 km/h (2 Bft)
01.10.2014 11:00 16,2 C 88 % 1024,5 hPa 0,0 l/m N 0,17 h 234 W/m 8,3 km/h (2 Bft)
01.10.2014 12:00 17,3 C 81 % 1024,5 hPa 0,0 l/m N-NO 0,33 h 292 W/m 9,0 km/h (2 Bft)
01.10.2014 13:00 18,1 C 78 % 1024,2 hPa 0,0 l/m O-NO 0,33 h 311 W/m 8,3 km/h (2 Bft)
01.10.2014 14:00 18,5 C 75 % 1023,7 hPa 0,0 l/m NO 0,58 h 476 W/m 5,5 km/h (1 Bft)
01.10.2014 15:00 19,2 C 72 % 1023,5 hPa 0,0 l/m NO 0,42 h 306 W/m 5,8 km/h (2 Bft)
01.10.2014 16:00 18,2 C 81 % 1023,4 hPa 0,0 l/m N-NO 0,25 h 151 W/m 5,5 km/h (1 Bft)
01.10.2014 17:00 18,7 C 76 % 1023,4 hPa 0,0 l/m NO 0,92 h 206 W/m 3,5 km/h (1 Bft)
01.10.2014 18:00 16,5 C 88 % 1023,8 hPa 0,0 l/m N 0,00 h 21 W/m 0,1 km/h (0 Bft)
01.10.2014 19:00 15,0 C 92 % 1024,5 hPa 1,2 l/m NO 0,00 h 5 W/m 7,8 km/h (2 Bft)
01.10.2014 20:00 14,2 C 94 % 1025,0 hPa 0,6 l/m N 0,00 h 0 W/m 1,3 km/h (1 Bft)
01.10.2014 21:00 13,9 C 96 % 1025,4 hPa 0,0 l/m N 0,00 h 0 W/m 2,1 km/h (1 Bft)
01.10.2014 22:00 13,5 C 96 % 1025,7 hPa 0,0 l/m N 0,00 h 0 W/m 0,4 km/h (0 Bft)
01.10.2014 23:00 12,9 C 96 % 1025,7 hPa 0,2 l/m N 0,00 h 0 W/m 0,7 km/h (0 Bft)
02.10.2014 00:00 12,3 C 96 % 1025,6 hPa 0,0 l/m NO 0,00 h 0 W/m 1,9 km/h (1 Bft)
02.10.2014 01:00 12,0 C 96 % 1025,7 hPa 0,0 l/m N 0,00 h 0 W/m 0,8 km/h (0 Bft)
02.10.2014 02:00 11,2 C 96 % 1025,8 hPa 0,0 l/m N 0,00 h 0 W/m 0,4 km/h (0 Bft)
02.10.2014 03:00 10,5 C 96 % 1025,8 hPa 0,0 l/m N 0,00 h 0 W/m 0,0 km/h (0 Bft)
02.10.2014 04:00 9,7 C 96 % 1025,7 hPa 0,0 l/m N 0,00 h 0 W/m 0,1 km/h (0 Bft)
02.10.2014 05:00 9,1 C 96 % 1025,9 hPa 0,0 l/m NO 0,00 h 0 W/m 1,7 km/h (1 Bft)
02.10.2014 06:00 9,1 C 97 % 1026,0 hPa 0,0 l/m N 0,00 h 0 W/m 2,7 km/h (1 Bft)
02.10.2014 07:00 9,8 C 98 % 1026,2 hPa 0,0 l/m N 0,00 h 8 W/m 1,1 km/h (0 Bft)
02.10.2014 08:00 10,7 C 98 % 1026,6 hPa 0,2 l/m N 0,00 h 29 W/m 3,1 km/h (1 Bft)
02.10.2014 09:00 11,4 C 99 % 1026,9 hPa 0,0 l/m NO 0,00 h 59 W/m 4,1 km/h (1 Bft)
02.10.2014 10:00 12,1 C 99 % 1026,9 hPa 0,0 l/m NO 0,00 h 86 W/m 7,9 km/h (2 Bft)
02.10.2014 11:00 12,9 C 99 % 1026,8 hPa 0,0 l/m NO 0,00 h 171 W/m 10,9 km/h (2 Bft)
02.10.2014 12:00 14,4 C 95 % 1026,6 hPa 0,0 l/m NO 0,08 h 231 W/m 12,0 km/h (2 Bft)
02.10.2014 13:00 15,1 C 91 % 1026,3 hPa 0,0 l/m NO 0,00 h 171 W/m 12,8 km/h (3 Bft)
02.10.2014 14:00 16,2 C 85 % 1025,8 hPa 0,0 l/m O-NO 0,33 h 368 W/m 16,0 km/h (3 Bft)
02.10.2014 15:00 17,0 C 82 % 1025,2 hPa 0,0 l/m NO 0,83 h 430 W/m 18,1 km/h (3 Bft)
02.10.2014 16:00 17,2 C 81 % 1024,9 hPa 0,0 l/m NO 1,00 h 355 W/m 15,4 km/h (3 Bft)
02.10.2014 17:00 16,6 C 83 % 1024,8 hPa 0,0 l/m NO 0,67 h 147 W/m 14,1 km/h (3 Bft)
02.10.2014 18:00 15,3 C 87 % 1024,9 hPa 0,0 l/m NO 0,17 h 32 W/m 10,6 km/h (2 Bft)
02.10.2014 19:00 13,7 C 92 % 1025,1 hPa 0,0 l/m NO 0,00 h 0 W/m 6,5 km/h (2 Bft)
02.10.2014 20:00 13,0 C 93 % 1025,3 hPa 0,0 l/m NO 0,00 h 0 W/m 5,4 km/h (1 Bft)
02.10.2014 21:00 12,5 C 95 % 1025,4 hPa 0,0 l/m N-NO 0,00 h 0 W/m 6,7 km/h (2 Bft)
02.10.2014 22:00 12,7 C 96 % 1025,5 hPa 0,0 l/m NO 0,00 h 0 W/m 8,0 km/h (2 Bft)
02.10.2014 23:00 12,8 C 97 % 1025,3 hPa 0,0 l/m O-NO 0,00 h 0 W/m 9,8 km/h (2 Bft)
03.10.2014 00:00 12,8 C 97 % 1025,0 hPa 0,0 l/m O-NO 0,00 h 0 W/m 9,9 km/h (2 Bft)
03.10.2014 01:00 12,8 C 97 % 1024,8 hPa 0,0 l/m O-NO 0,00 h 0 W/m 8,8 km/h (2 Bft)
03.10.2014 02:00 12,7 C 96 % 1024,4 hPa 0,0 l/m O-NO 0,00 h 0 W/m 6,9 km/h (2 Bft)
03.10.2014 03:00 12,5 C 95 % 1024,1 hPa 0,0 l/m O 0,00 h 0 W/m 6,3 km/h (2 Bft)
03.10.2014 04:00 12,1 C 95 % 1023,8 hPa 0,0 l/m O-NO 0,00 h 0 W/m 7,9 km/h (2 Bft)
03.10.2014 05:00 11,7 C 95 % 1023,8 hPa 0,0 l/m O-NO 0,00 h 0 W/m 7,0 km/h (2 Bft)
03.10.2014 06:00 11,3 C 95 % 1023,7 hPa 0,0 l/m O-NO 0,00 h 0 W/m 8,7 km/h (2 Bft)
03.10.2014 07:00 11,0 C 95 % 1023,6 hPa 0,0 l/m O-NO 0,00 h 10 W/m 10,3 km/h (2 Bft)
03.10.2014 08:00 10,9 C 95 % 1023,9 hPa 0,0 l/m O-NO 0,00 h 34 W/m 10,9 km/h (2 Bft)
03.10.2014 09:00 11,3 C 95 % 1024,1 hPa 0,0 l/m O-NO 0,00 h 77 W/m 8,4 km/h (2 Bft)
03.10.2014 10:00 12,3 C 91 % 1024,2 hPa 0,0 l/m O-SO 0,08 h 192 W/m 11,7 km/h (2 Bft)
03.10.2014 11:00 13,1 C 87 % 1023,9 hPa 0,0 l/m O-NO 0,25 h 280 W/m 12,8 km/h (3 Bft)
03.10.2014 12:00 14,5 C 82 % 1023,4 hPa 0,0 l/m O-SO 0,83 h 527 W/m 15,7 km/h (3 Bft)
03.10.2014 13:00 16,0 C 77 % 1022,8 hPa 0,0 l/m O-NO 1,00 h 612 W/m 15,4 km/h (3 Bft)
03.10.2014 14:00 16,6 C 72 % 1022,2 hPa 0,0 l/m O-SO 1,00 h 569 W/m 15,6 km/h (3 Bft)
03.10.2014 15:00 17,6 C 66 % 1021,5 hPa 0,0 l/m O 1,00 h 488 W/m 16,4 km/h (3 Bft)
03.10.2014 16:00 17,7 C 67 % 1021,1 hPa 0,0 l/m O-NO 1,00 h 361 W/m 16,4 km/h (3 Bft)
03.10.2014 17:00 17,0 C 69 % 1021,0 hPa 0,0 l/m O 1,00 h 188 W/m 14,4 km/h (3 Bft)
03.10.2014 18:00 15,4 C 74 % 1021,1 hPa 0,0 l/m O 0,25 h 28 W/m 11,7 km/h (2 Bft)
03.10.2014 19:00 14,1 C 79 % 1021,1 hPa 0,0 l/m O-NO 0,00 h 0 W/m 3,2 km/h (1 Bft)
03.10.2014 20:00 12,7 C 83 % 1021,1 hPa 0,0 l/m N 0,00 h 0 W/m 2,8 km/h (1 Bft)
03.10.2014 21:00 11,6 C 87 % 1021,0 hPa 0,0 l/m N 0,00 h 0 W/m 2,8 km/h (1 Bft)
03.10.2014 22:00 10,7 C 89 % 1020,7 hPa 0,0 l/m N 0,00 h 0 W/m 2,4 km/h (1 Bft)
03.10.2014 23:00 10,0 C 92 % 1020,2 hPa 0,0 l/m N 0,00 h 0 W/m 2,5 km/h (1 Bft)
04.10.2014 00:00 9,5 C 93 % 1019,9 hPa 0,0 l/m O-NO 0,00 h 0 W/m 2,9 km/h (1 Bft)
04.10.2014 01:00 9,0 C 94 % 1019,6 hPa 0,0 l/m O-NO 0,00 h 0 W/m 4,0 km/h (1 Bft)
04.10.2014 02:00 8,7 C 95 % 1019,2 hPa 0,0 l/m O-NO 0,00 h 0 W/m 4,9 km/h (1 Bft)
04.10.2014 03:00 8,3 C 96 % 1018,6 hPa 0,0 l/m O-NO 0,00 h 0 W/m 4,5 km/h (1 Bft)
04.10.2014 04:00 7,9 C 96 % 1018,4 hPa 0,0 l/m O-NO 0,00 h 0 W/m 4,3 km/h (1 Bft)
04.10.2014 05:00 7,5 C 97 % 1018,1 hPa 0,0 l/m O-NO 0,00 h 0 W/m 4,1 km/h (1 Bft)
04.10.2014 06:00 7,9 C 97 % 1017,8 hPa 0,0 l/m O-NO 0,00 h 0 W/m 5,9 km/h (2 Bft)
04.10.2014 07:00 8,0 C 98 % 1017,8 hPa 0,0 l/m O-NO 0,00 h 7 W/m 4,7 km/h (1 Bft)
04.10.2014 08:00 8,1 C 98 % 1017,7 hPa 0,0 l/m O 0,00 h 20 W/m 5,9 km/h (2 Bft)
04.10.2014 09:00 8,3 C 98 % 1017,8 hPa 0,0 l/m O 0,00 h 36 W/m 5,2 km/h (1 Bft)
04.10.2014 10:00 8,6 C 99 % 1017,7 hPa 0,0 l/m N 0,00 h 49 W/m 2,7 km/h (1 Bft)
04.10.2014 11:00 9,1 C 99 % 1017,5 hPa 0,0 l/m N 0,00 h 77 W/m 2,3 km/h (1 Bft)
04.10.2014 12:00 9,9 C 98 % 1017,3 hPa 0,0 l/m O 0,00 h 116 W/m 1,5 km/h (1 Bft)
04.10.2014 13:00 10,9 C 95 % 1017,1 hPa 0,0 l/m N 0,00 h 85 W/m 1,7 km/h (1 Bft)
04.10.2014 14:00 11,3 C 93 % 1016,8 hPa 0,0 l/m O 0,00 h 86 W/m 3,7 km/h (1 Bft)
04.10.2014 15:00 12,0 C 91 % 1016,5 hPa 0,0 l/m O 0,00 h 111 W/m 4,4 km/h (1 Bft)
04.10.2014 16:00 12,4 C 89 % 1016,0 hPa 0,0 l/m O 0,00 h 85 W/m 6,7 km/h (2 Bft)
04.10.2014 17:00 12,6 C 89 % 1015,9 hPa 0,0 l/m N 0,00 h 49 W/m 2,1 km/h (1 Bft)
04.10.2014 18:00 12,3 C 90 % 1016,0 hPa 0,0 l/m N 0,00 h 14 W/m 1,9 km/h (1 Bft)
04.10.2014 19:00 12,2 C 91 % 1016,2 hPa 0,0 l/m O 0,00 h 0 W/m 0,8 km/h (0 Bft)
04.10.2014 20:00 12,1 C 91 % 1016,3 hPa 0,0 l/m N 0,00 h 0 W/m 2,0 km/h (1 Bft)
04.10.2014 21:00 11,8 C 92 % 1016,4 hPa 0,0 l/m N 0,00 h 0 W/m 0,7 km/h (0 Bft)
04.10.2014 22:00 11,7 C 93 % 1016,4 hPa 0,0 l/m N 0,00 h 0 W/m 0,5 km/h (0 Bft)
04.10.2014 23:00 11,8 C 95 % 1016,2 hPa 0,0 l/m N 0,00 h 0 W/m 1,5 km/h (1 Bft)
05.10.2014 00:00 11,9 C 95 % 1015,9 hPa 0,0 l/m O 0,00 h 0 W/m 3,5 km/h (1 Bft)
05.10.2014 01:00 11,8 C 96 % 1015,8 hPa 0,0 l/m NW 0,00 h 0 W/m 4,0 km/h (1 Bft)
05.10.2014 02:00 11,7 C 96 % 1015,6 hPa 0,0 l/m N 0,00 h 0 W/m 1,9 km/h (1 Bft)
05.10.2014 03:00 11,6 C 97 % 1015,6 hPa 0,0 l/m W-NW 0,00 h 0 W/m 4,4 km/h (1 Bft)
05.10.2014 04:00 11,4 C 97 % 1015,4 hPa 0,0 l/m W-NW 0,00 h 0 W/m 3,6 km/h (1 Bft)
05.10.2014 05:00 11,3 C 97 % 1015,5 hPa 0,0 l/m SW 0,00 h 0 W/m 7,5 km/h (2 Bft)
05.10.2014 06:00 11,2 C 97 % 1015,4 hPa 0,0 l/m SW 0,00 h 0 W/m 4,7 km/h (1 Bft)
05.10.2014 07:00 11,2 C 97 % 1015,2 hPa 0,0 l/m SW 0,00 h 5 W/m 1,3 km/h (1 Bft)
05.10.2014 08:00 11,3 C 98 % 1015,4 hPa 0,0 l/m N 0,00 h 25 W/m 1,2 km/h (1 Bft)
05.10.2014 09:00 11,7 C 98 % 1015,4 hPa 0,0 l/m SW 0,00 h 52 W/m 4,8 km/h (1 Bft)
05.10.2014 10:00 12,6 C 96 % 1015,3 hPa 0,0 l/m SW 0,08 h 171 W/m 2,9 km/h (1 Bft)
05.10.2014 11:00 14,1 C 90 % 1015,0 hPa 0,0 l/m S 0,33 h 315 W/m 4,1 km/h (1 Bft)
05.10.2014 12:00 15,4 C 86 % 1014,4 hPa 0,0 l/m O-NO 1,00 h 538 W/m 6,7 km/h (2 Bft)
05.10.2014 13:00 16,6 C 82 % 1013,8 hPa 0,0 l/m NO 0,75 h 476 W/m 7,9 km/h (2 Bft)
05.10.2014 14:00 17,1 C 81 % 1013,2 hPa 0,0 l/m N 0,50 h 392 W/m 10,5 km/h (2 Bft)
05.10.2014 15:00 17,2 C 81 % 1012,8 hPa 0,0 l/m N-NO 0,83 h 325 W/m 11,6 km/h (2 Bft)
05.10.2014 16:00 16,3 C 84 % 1012,6 hPa 0,0 l/m O-NO 0,25 h 175 W/m 12,1 km/h (2 Bft)
05.10.2014 17:00 15,0 C 88 % 1012,7 hPa 0,0 l/m N-NO 0,00 h 74 W/m 11,2 km/h (2 Bft)
05.10.2014 18:00 13,8 C 91 % 1012,8 hPa 0,0 l/m N-NO 0,00 h 17 W/m 11,0 km/h (2 Bft)
05.10.2014 19:00 12,8 C 93 % 1012,9 hPa 0,0 l/m NO 0,00 h 0 W/m 8,8 km/h (2 Bft)
05.10.2014 20:00 12,7 C 94 % 1013,0 hPa 0,0 l/m NO 0,00 h 0 W/m 7,1 km/h (2 Bft)
05.10.2014 21:00 12,6 C 94 % 1013,0 hPa 0,0 l/m NO 0,00 h 0 W/m 7,4 km/h (2 Bft)
05.10.2014 22:00 12,6 C 94 % 1013,0 hPa 0,0 l/m NO 0,00 h 0 W/m 10,1 km/h (2 Bft)
05.10.2014 23:00 12,2 C 94 % 1013,1 hPa 0,0 l/m O-NO 0,00 h 0 W/m 7,2 km/h (2 Bft)
Min-Datum _ 04.10.14 03.10.14 05.10.14 - - - - 29.09.14
_ Min-Zeit 05:15 15:35 16:05 - - - - 00:00
Minimum _ 7,4 C 64 % 1012,5 hPa - - - - 0,0 km/h (0 Bft)
Max-Datum _ 29.09.14 02.10.14 02.10.14 01.10.14 - 29.09.14 01.10.14 03.10.14
_ Max-Zeit 17:05 05:55 10:10 19:50 - 12:15 13:30 16:20
Maximum _ 21,8 C 100 % 1027,0 hPa 1,2 l/m - 0,08 h 777 W/m 22,5 km/h
O-SO (4 Bft)
Durchschnitt _ 13,4 C 92 % 1021,7 hPa #4,4 l/m O-NO #22:20 h 181 W/m 5,0 km/h (1 Bft)